Hovedside
METAR-TAF:

METAR-TAF

Lufthavner :

Uleåborg, Finland

Uleåborg lufthavn

breddegrad: 64-56N, lengdegrad: 025-22E, høyde over havet: 12 m

Gjeldene værobservasjon

Denne rapporten ble laget for 34 minutter siden, klokken 18:20 UTC
Vind 6 kt fra Sør
Temperatur 8°C
Luftfuktighet 93%
Trykk 1032 hPa
Sikt 10 km eller mer

METAR: EFOU 221820Z AUTO 17006KT 9999 FEW012/// 08/07 Q1032

Tid: 21:54 (18:54 UTC)

Varsel

Denne rapporten ble laget for 1 time og 22 minutter siden, klokken 17:32 UTC
Varsel gyldig fra 22. klokken 18 UTC til 23. klokken 18 UTC
Vind 9 kt fra Sørøst
Sikt 10 km eller mer
ingen skyer under 1500 m og ingen bygeskyer
Midlertidig
fra 22. klokken 18 UTC til 22. klokken 23 UTC
Sikt: 2000 m
Spredte skyer i en høyde av 100 ft
dis
Midlertidig
fra 22. klokken 23 UTC til 23. klokken 06 UTC
Sikt: 0400 m
i en høyde av 100 ft
tåke

TAF: EFOU 221732Z 2218/2318 14009KT CAVOK TEMPO 2218/2223 2000 BR SCT001 TEMPO 2223/2306 0400 FG VV001

Værobservasjoner og værvarsel for over 4000 flyplasser (METAR- og TAF-rapporter).

Tilgjengelige stasjoner er representert av de røde og gule prikkene på kartet.

Hold musepekeren over prikken for å se navnet på stasjonen.

Klikk så for å se værobservasjoner og -varsler.

For å forandre kartet kan du klikke på den grønne knappen med svart kryss for å zoome inn, på den grønne knappen med strek for å zoome ut, eller på de grønne pilene for å se tilstøtende kart.


METAR-TAF: